sensor_id;sensor_type;location;lat;lon;timestamp;pressure;altitude;pressure_sealevel;temperature;humidity
31337;BME280;22846;42.654;23.314;2022-10-16T00:01:22;95122.47;;;24.58;45.96
31337;BME280;22846;42.654;23.314;2022-10-16T00:03:48;95129.38;;;24.63;46.48
31337;BME280;22846;42.654;23.314;2022-10-16T00:06:15;95106.31;;;24.48;46.09
31337;BME280;22846;42.654;23.314;2022-10-16T00:08:41;95137.16;;;24.64;46.06
31337;BME280;22846;42.654;23.314;2022-10-16T00:11:10;95141.84;;;24.64;46.38
31337;BME280;22846;42.654;23.314;2022-10-16T00:13:37;95141.06;;;24.63;46.48
31337;BME280;22846;42.654;23.314;2022-10-16T00:16:04;95148.09;;;24.64;46.43
31337;BME280;22846;42.654;23.314;2022-10-16T00:18:30;95144.56;;;24.64;46.31
31337;BME280;22846;42.654;23.314;2022-10-16T00:21:04;95145.78;;;24.63;46.23
31337;BME280;22846;42.654;23.314;2022-10-16T00:23:30;95145.00;;;24.62;46.47
31337;BME280;22846;42.654;23.314;2022-10-16T00:26:02;95143.47;;;24.61;46.54
31337;BME280;22846;42.654;23.314;2022-10-16T00:28:28;95145.53;;;24.57;46.33
31337;BME280;22846;42.654;23.314;2022-10-16T00:30:53;95155.19;;;24.62;46.29
31337;BME280;22846;42.654;23.314;2022-10-16T00:33:19;95157.13;;;24.61;46.27
31337;BME280;22846;42.654;23.314;2022-10-16T00:35:45;95162.59;;;24.61;46.17
31337;BME280;22846;42.654;23.314;2022-10-16T00:38:11;95161.41;;;24.62;46.60
31337;BME280;22846;42.654;23.314;2022-10-16T00:40:36;95155.25;;;24.58;46.62
31337;BME280;22846;42.654;23.314;2022-10-16T00:43:02;95166.50;;;24.60;46.70
31337;BME280;22846;42.654;23.314;2022-10-16T00:45:27;95153.38;;;24.55;46.48
31337;BME280;22846;42.654;23.314;2022-10-16T00:47:55;95162.25;;;24.59;46.86
31337;BME280;22846;42.654;23.314;2022-10-16T00:50:28;95154.47;;;24.58;46.42
31337;BME280;22846;42.654;23.314;2022-10-16T00:52:55;95150.56;;;24.59;46.85
31337;BME280;22846;42.654;23.314;2022-10-16T00:55:22;95158.00;;;24.58;46.50
31337;BME280;22846;42.654;23.314;2022-10-16T00:57:48;95145.16;;;24.55;46.46
31337;BME280;22846;42.654;23.314;2022-10-16T01:00:20;95150.19;;;24.57;46.43
31337;BME280;22846;42.654;23.314;2022-10-16T01:02:53;95148.41;;;24.50;46.43
31337;BME280;22846;42.654;23.314;2022-10-16T01:05:20;95156.94;;;24.52;46.86
31337;BME280;22846;42.654;23.314;2022-10-16T01:08:17;95167.78;;;24.56;46.52
31337;BME280;22846;42.654;23.314;2022-10-16T01:10:54;95161.56;;;24.55;46.53
31337;BME280;22846;42.654;23.314;2022-10-16T01:13:28;95164.72;;;24.54;47.07
31337;BME280;22846;42.654;23.314;2022-10-16T01:16:07;95167.88;;;24.52;46.52
31337;BME280;22846;42.654;23.314;2022-10-16T01:18:44;95157.28;;;24.54;47.09
31337;BME280;22846;42.654;23.314;2022-10-16T01:21:28;95154.56;;;24.54;47.23
31337;BME280;22846;42.654;23.314;2022-10-16T01:29:08;95154.22;;;24.52;46.90
31337;BME280;22846;42.654;23.314;2022-10-16T01:31:36;95151.47;;;24.52;46.66
31337;BME280;22846;42.654;23.314;2022-10-16T01:34:08;95146.78;;;24.53;46.86
31337;BME280;22846;42.654;23.314;2022-10-16T01:36:39;95138.25;;;24.51;46.70
31337;BME280;22846;42.654;23.314;2022-10-16T01:39:06;95137.53;;;24.47;46.79
31337;BME280;22846;42.654;23.314;2022-10-16T01:41:38;95141.75;;;24.51;46.78
31337;BME280;22846;42.654;23.314;2022-10-16T01:44:14;95134.50;;;24.45;47.16
31337;BME280;22846;42.654;23.314;2022-10-16T01:46:43;95140.19;;;24.50;46.78
31337;BME280;22846;42.654;23.314;2022-10-16T01:49:11;95139.16;;;24.44;46.85
31337;BME280;22846;42.654;23.314;2022-10-16T01:51:38;95154.28;;;24.49;46.91
31337;BME280;22846;42.654;23.314;2022-10-16T01:54:06;95153.53;;;24.48;46.72
31337;BME280;22846;42.654;23.314;2022-10-16T01:56:34;95152.00;;;24.47;46.77
31337;BME280;22846;42.654;23.314;2022-10-16T01:59:07;95150.81;;;24.48;47.03
31337;BME280;22846;42.654;23.314;2022-10-16T02:01:37;95130.50;;;24.30;47.21
31337;BME280;22846;42.654;23.314;2022-10-16T02:04:10;95157.47;;;24.47;46.80
31337;BME280;22846;42.654;23.314;2022-10-16T02:06:37;95161.72;;;24.48;46.86
31337;BME280;22846;42.654;23.314;2022-10-16T02:09:02;95168.78;;;24.46;47.21
31337;BME280;22846;42.654;23.314;2022-10-16T02:11:28;95171.88;;;24.48;47.15
31337;BME280;22846;42.654;23.314;2022-10-16T02:13:58;95170.34;;;24.47;47.20
31337;BME280;22846;42.654;23.314;2022-10-16T02:16:39;95177.78;;;24.46;46.89
31337;BME280;22846;42.654;23.314;2022-10-16T02:19:06;95181.25;;;24.47;46.85
31337;BME280;22846;42.654;23.314;2022-10-16T02:21:57;95184.00;;;24.47;47.29
31337;BME280;22846;42.654;23.314;2022-10-16T02:27:13;95186.09;;;24.39;47.26
31337;BME280;22846;42.654;23.314;2022-10-16T02:29:46;95180.72;;;24.36;47.13
31337;BME280;22846;42.654;23.314;2022-10-16T02:32:17;95192.28;;;24.43;47.06
31337;BME280;22846;42.654;23.314;2022-10-16T02:34:45;95189.13;;;24.45;47.29
31337;BME280;22846;42.654;23.314;2022-10-16T02:37:12;95171.34;;;24.37;47.04
31337;BME280;22846;42.654;23.314;2022-10-16T02:39:38;95182.88;;;24.44;47.29
31337;BME280;22846;42.654;23.314;2022-10-16T02:42:10;95186.81;;;24.43;46.87
31337;BME280;22846;42.654;23.314;2022-10-16T02:44:35;95178.31;;;24.38;47.20
31337;BME280;22846;42.654;23.314;2022-10-16T02:47:01;95192.28;;;24.43;47.29
31337;BME280;22846;42.654;23.314;2022-10-16T02:49:26;95183.84;;;24.34;47.03
31337;BME280;22846;42.654;23.314;2022-10-16T02:51:51;95195.00;;;24.43;47.02
31337;BME280;22846;42.654;23.314;2022-10-16T02:54:17;95173.09;;;24.27;46.99
31337;BME280;22846;42.654;23.314;2022-10-16T02:56:42;95172.34;;;24.27;47.16
31337;BME280;22846;42.654;23.314;2022-10-16T02:59:07;95201.63;;;24.42;47.15
31337;BME280;22846;42.654;23.314;2022-10-16T03:01:33;95201.63;;;24.42;46.91
31337;BME280;22846;42.654;23.314;2022-10-16T03:03:59;95200.88;;;24.42;47.06
31337;BME280;22846;42.654;23.314;2022-10-16T03:06:24;95203.31;;;24.36;47.33
31337;BME280;22846;42.654;23.314;2022-10-16T03:08:49;95205.56;;;24.41;47.41
31337;BME280;22846;42.654;23.314;2022-10-16T03:11:15;95198.56;;;24.40;47.39
31337;BME280;22846;42.654;23.314;2022-10-16T03:13:40;95214.97;;;24.40;47.00
31337;BME280;22846;42.654;23.314;2022-10-16T03:16:06;95214.19;;;24.40;47.47
31337;BME280;22846;42.654;23.314;2022-10-16T03:18:31;95213.41;;;24.39;47.01
31337;BME280;22846;42.654;23.314;2022-10-16T03:20:57;95220.44;;;24.40;47.04
31337;BME280;22846;42.654;23.314;2022-10-16T03:23:22;95210.84;;;24.32;47.45
31337;BME280;22846;42.654;23.314;2022-10-16T03:25:47;95218.88;;;24.39;47.18
31337;BME280;22846;42.654;23.314;2022-10-16T03:28:13;95215.38;;;24.39;47.07
31337;BME280;22846;42.654;23.314;2022-10-16T03:30:38;95219.72;;;24.36;47.31
31337;BME280;22846;42.654;23.314;2022-10-16T03:33:05;95217.00;;;24.36;47.15
31337;BME280;22846;42.654;23.314;2022-10-16T03:35:30;95224.00;;;24.37;47.63
31337;BME280;22846;42.654;23.314;2022-10-16T03:37:56;95219.28;;;24.38;47.65
31337;BME280;22846;42.654;23.314;2022-10-16T03:40:21;95223.25;;;24.37;47.32
31337;BME280;22846;42.654;23.314;2022-10-16T03:42:47;95230.22;;;24.38;47.52
31337;BME280;22846;42.654;23.314;2022-10-16T03:45:12;95225.63;;;24.35;47.46
31337;BME280;22846;42.654;23.314;2022-10-16T03:47:38;95222.44;;;24.36;47.45
31337;BME280;22846;42.654;23.314;2022-10-16T03:50:04;95208.13;;;24.32;47.63
31337;BME280;22846;42.654;23.314;2022-10-16T03:52:29;95221.25;;;24.37;47.51
31337;BME280;22846;42.654;23.314;2022-10-16T03:54:55;95209.97;;;24.35;47.18
31337;BME280;22846;42.654;23.314;2022-10-16T03:57:21;95213.50;;;24.36;47.59
31337;BME280;22846;42.654;23.314;2022-10-16T03:59:46;95208.78;;;24.36;47.62
31337;BME280;22846;42.654;23.314;2022-10-16T04:02:12;95216.22;;;24.36;47.43
31337;BME280;22846;42.654;23.314;2022-10-16T04:04:38;95191.00;;;24.28;47.36
31337;BME280;22846;42.654;23.314;2022-10-16T04:07:03;95204.94;;;24.34;47.45
31337;BME280;22846;42.654;23.314;2022-10-16T04:09:29;95206.50;;;24.35;47.67
31337;BME280;22846;42.654;23.314;2022-10-16T04:11:54;95203.13;;;24.27;47.23
31337;BME280;22846;42.654;23.314;2022-10-16T04:14:19;95214.69;;;24.35;47.59
31337;BME280;22846;42.654;23.314;2022-10-16T04:16:45;95215.44;;;24.35;47.69
31337;BME280;22846;42.654;23.314;2022-10-16T04:19:11;95215.09;;;24.33;47.59
31337;BME280;22846;42.654;23.314;2022-10-16T04:21:37;95213.22;;;24.30;47.26
31337;BME280;22846;42.654;23.314;2022-10-16T04:24:02;95212.34;;;24.33;47.27
31337;BME280;22846;42.654;23.314;2022-10-16T04:26:28;95218.59;;;24.34;47.71
31337;BME280;22846;42.654;23.314;2022-10-16T04:28:53;95210.84;;;24.32;47.69
31337;BME280;22846;42.654;23.314;2022-10-16T04:31:19;95224.50;;;24.32;47.29
31337;BME280;22846;42.654;23.314;2022-10-16T04:33:45;95218.34;;;24.28;47.31
31337;BME280;22846;42.654;23.314;2022-10-16T04:36:10;95228.44;;;24.31;47.68
31337;BME280;22846;42.654;23.314;2022-10-16T04:38:36;95228.44;;;24.31;47.66
31337;BME280;22846;42.654;23.314;2022-10-16T04:41:03;95227.63;;;24.31;47.75
31337;BME280;22846;42.654;23.314;2022-10-16T04:43:28;95230.38;;;24.31;47.29
31337;BME280;22846;42.654;23.314;2022-10-16T04:45:54;95230.81;;;24.29;47.45
31337;BME280;22846;42.654;23.314;2022-10-16T04:48:20;95237.81;;;24.30;47.44
31337;BME280;22846;42.654;23.314;2022-10-16T04:50:45;95235.47;;;24.29;47.24
31337;BME280;22846;42.654;23.314;2022-10-16T04:53:10;95242.47;;;24.30;47.87
31337;BME280;22846;42.654;23.314;2022-10-16T04:55:36;95246.75;;;24.31;47.41
31337;BME280;22846;42.654;23.314;2022-10-16T04:58:02;95251.47;;;24.30;47.58
31337;BME280;22846;42.654;23.314;2022-10-16T05:00:27;95244.88;;;24.28;47.40
31337;BME280;22846;42.654;23.314;2022-10-16T05:02:53;95246.16;;;24.23;47.95
31337;BME280;22846;42.654;23.314;2022-10-16T05:05:18;95250.41;;;24.24;47.45
31337;BME280;22846;42.654;23.314;2022-10-16T05:07:48;95258.13;;;24.29;47.63
31337;BME280;22846;42.654;23.314;2022-10-16T05:10:15;95240.34;;;24.21;47.82
31337;BME280;22846;42.654;23.314;2022-10-16T05:12:40;95260.41;;;24.31;47.85
31337;BME280;22846;42.654;23.314;2022-10-16T05:15:06;95262.41;;;24.30;47.81
31337;BME280;22846;42.654;23.314;2022-10-16T05:17:32;95267.84;;;24.30;47.82
31337;BME280;22846;42.654;23.314;2022-10-16T05:19:57;95266.25;;;24.33;47.48
31337;BME280;22846;42.654;23.314;2022-10-16T05:22:22;95272.06;;;24.35;47.79
31337;BME280;22846;42.654;23.314;2022-10-16T05:24:48;95271.28;;;24.34;47.31
31337;BME280;22846;42.654;23.314;2022-10-16T05:27:13;95261.19;;;24.31;47.39
31337;BME280;22846;42.654;23.314;2022-10-16T05:29:47;95263.78;;;24.38;47.36
31337;BME280;22846;42.654;23.314;2022-10-16T05:32:14;95269.59;;;24.40;47.02
31337;BME280;22846;42.654;23.314;2022-10-16T05:34:40;95260.78;;;24.33;47.17
31337;BME280;22846;42.654;23.314;2022-10-16T05:37:06;95273.84;;;24.45;47.04
31337;BME280;22846;42.654;23.314;2022-10-16T05:39:32;95269.84;;;24.49;47.40
31337;BME280;22846;42.654;23.314;2022-10-16T05:41:57;95274.44;;;24.52;46.77
31337;BME280;22846;42.654;23.314;2022-10-16T05:44:23;95260.84;;;24.49;46.72
31337;BME280;22846;42.654;23.314;2022-10-16T05:46:48;95268.91;;;24.56;46.54
31337;BME280;22846;42.654;23.314;2022-10-16T05:49:14;95276.34;;;24.55;46.57
31337;BME280;22846;42.654;23.314;2022-10-16T05:51:39;95280.09;;;24.61;46.41
31337;BME280;22846;42.654;23.314;2022-10-16T05:54:05;95287.47;;;24.64;46.74
31337;BME280;22846;42.654;23.314;2022-10-16T05:56:30;95278.16;;;24.62;46.79
31337;BME280;22846;42.654;23.314;2022-10-16T05:58:55;95295.94;;;24.70;46.92
31337;BME280;22846;42.654;23.314;2022-10-16T06:01:21;95293.53;;;24.72;46.52
31337;BME280;22846;42.654;23.314;2022-10-16T06:03:52;95305.63;;;24.74;46.35
31337;BME280;22846;42.654;23.314;2022-10-16T06:06:20;95306.38;;;24.75;47.12
31337;BME280;22846;42.654;23.314;2022-10-16T06:08:46;95299.44;;;24.70;47.12
31337;BME280;22846;42.654;23.314;2022-10-16T06:11:17;95317.59;;;24.80;46.92
31337;BME280;22846;42.654;23.314;2022-10-16T06:13:43;95310.50;;;24.82;46.82
31337;BME280;22846;42.654;23.314;2022-10-16T06:16:11;95317.50;;;24.83;46.85
31337;BME280;22846;42.654;23.314;2022-10-16T06:18:38;95316.41;;;24.81;47.11
31337;BME280;22846;42.654;23.314;2022-10-16T06:21:15;95321.69;;;24.88;47.14
31337;BME280;22846;42.654;23.314;2022-10-16T06:23:41;95327.88;;;24.92;46.89
31337;BME280;22846;42.654;23.314;2022-10-16T06:26:09;95316.22;;;24.88;46.81
31337;BME280;22846;42.654;23.314;2022-10-16T06:28:35;95328.56;;;24.96;47.00
31337;BME280;22846;42.654;23.314;2022-10-16T06:31:01;95326.19;;;24.98;47.17
31337;BME280;22846;42.654;23.314;2022-10-16T06:33:27;95323.78;;;25.00;47.21
31337;BME280;22846;42.654;23.314;2022-10-16T06:35:52;95322.16;;;25.02;46.97
31337;BME280;22846;42.654;23.314;2022-10-16T06:38:17;95330.72;;;25.04;46.74
31337;BME280;22846;42.654;23.314;2022-10-16T06:40:43;95337.31;;;25.07;47.00
31337;BME280;22846;42.654;23.314;2022-10-16T06:43:08;95336.13;;;25.08;46.76
31337;BME280;22846;42.654;23.314;2022-10-16T06:45:34;95341.53;;;25.11;47.16
31337;BME280;22846;42.654;23.314;2022-10-16T06:47:59;95338.38;;;25.13;47.06
31337;BME280;22846;42.654;23.314;2022-10-16T06:50:24;95341.44;;;25.15;47.13
31337;BME280;22846;42.654;23.314;2022-10-16T06:52:50;95342.56;;;25.17;46.80
31337;BME280;22846;42.654;23.314;2022-10-16T06:55:16;95357.03;;;25.18;47.17
31337;BME280;22846;42.654;23.314;2022-10-16T06:57:42;95352.66;;;25.20;46.79
31337;BME280;22846;42.654;23.314;2022-10-16T07:00:09;95362.41;;;25.21;46.98
31337;BME280;22846;42.654;23.314;2022-10-16T07:02:34;95361.22;;;25.22;47.12
31337;BME280;22846;42.654;23.314;2022-10-16T07:04:59;95366.25;;;25.24;46.89
31337;BME280;22846;42.654;23.314;2022-10-16T07:07:25;95365.44;;;25.27;47.08
31337;BME280;22846;42.654;23.314;2022-10-16T07:09:51;95364.19;;;25.28;46.82
31337;BME280;22846;42.654;23.314;2022-10-16T07:12:17;95357.22;;;25.27;46.78
31337;BME280;22846;42.654;23.314;2022-10-16T07:14:42;95366.88;;;25.31;46.93
31337;BME280;22846;42.654;23.314;2022-10-16T07:17:08;95369.94;;;25.33;46.77
31337;BME280;22846;42.654;23.314;2022-10-16T07:19:33;95368.00;;;25.34;46.79
31337;BME280;22846;42.654;23.314;2022-10-16T07:21:59;95369.88;;;25.37;46.86
31337;BME280;22846;42.654;23.314;2022-10-16T07:24:24;95372.19;;;25.38;46.71
31337;BME280;22846;42.654;23.314;2022-10-16T07:26:50;95373.75;;;25.39;46.20
31337;BME280;22846;42.654;23.314;2022-10-16T07:29:18;95369.47;;;25.38;46.59
31337;BME280;22846;42.654;23.314;2022-10-16T07:31:44;95374.50;;;25.40;46.30
31337;BME280;22846;42.654;23.314;2022-10-16T07:34:11;95376.03;;;25.41;46.46
31337;BME280;22846;42.654;23.314;2022-10-16T07:36:36;95374.84;;;25.42;46.46
31337;BME280;22846;42.654;23.314;2022-10-16T07:39:02;95376.81;;;25.41;46.04
31337;BME280;22846;42.654;23.314;2022-10-16T07:41:28;95378.34;;;25.42;46.54
31337;BME280;22846;42.654;23.314;2022-10-16T07:43:54;95377.59;;;25.42;46.33
31337;BME280;22846;42.654;23.314;2022-10-16T07:46:21;95371.00;;;25.39;46.44
31337;BME280;22846;42.654;23.314;2022-10-16T07:48:47;95372.53;;;25.40;46.15
31337;BME280;22846;42.654;23.314;2022-10-16T07:51:18;95375.28;;;25.40;46.59
31337;BME280;22846;42.654;23.314;2022-10-16T07:53:44;95376.03;;;25.41;46.45
31337;BME280;22846;42.654;23.314;2022-10-16T07:56:10;95383.81;;;25.42;46.62
31337;BME280;22846;42.654;23.314;2022-10-16T07:58:37;95378.78;;;25.41;45.16
31337;BME280;22846;42.654;23.314;2022-10-16T08:01:05;95375.50;;;25.30;38.54
31337;BME280;22846;42.654;23.314;2022-10-16T08:03:30;95380.69;;;25.24;35.30
31337;BME280;22846;42.654;23.314;2022-10-16T08:05:59;95380.59;;;25.12;35.36
31337;BME280;22846;42.654;23.314;2022-10-16T08:08:25;95384.28;;;25.02;37.47
31337;BME280;22846;42.654;23.314;2022-10-16T08:10:51;95375.41;;;24.98;41.04
31337;BME280;22846;42.654;23.314;2022-10-16T08:13:17;95388.72;;;24.96;41.32
31337;BME280;22846;42.654;23.314;2022-10-16T08:15:43;95381.53;;;25.02;41.97
31337;BME280;22846;42.654;23.314;2022-10-16T08:18:10;95368.94;;;25.08;42.96
31337;BME280;22846;42.654;23.314;2022-10-16T08:20:36;95368.47;;;25.13;43.20
31337;BME280;22846;42.654;23.314;2022-10-16T08:23:01;95378.13;;;25.17;43.52
31337;BME280;22846;42.654;23.314;2022-10-16T08:25:27;95378.84;;;25.21;43.73
31337;BME280;22846;42.654;23.314;2022-10-16T08:27:53;95369.47;;;25.19;42.19
31337;BME280;22846;42.654;23.314;2022-10-16T08:30:19;95382.53;;;25.31;42.65
31337;BME280;22846;42.654;23.314;2022-10-16T08:32:46;95375.41;;;25.33;42.72
31337;BME280;22846;42.654;23.314;2022-10-16T08:35:12;95366.38;;;25.36;42.31
31337;BME280;22846;42.654;23.314;2022-10-16T08:37:38;95362.78;;;25.39;42.81
31337;BME280;22846;42.654;23.314;2022-10-16T08:40:06;95376.03;;;25.41;42.77
31337;BME280;22846;42.654;23.314;2022-10-16T08:50:18;95377.84;;;25.47;43.26
31337;BME280;22846;42.654;23.314;2022-10-16T08:52:46;95372.66;;;25.53;43.31
31337;BME280;22846;42.654;23.314;2022-10-16T08:57:58;95378.97;;;25.50;43.68
31337;BME280;22846;42.654;23.314;2022-10-16T09:00:24;95382.47;;;25.50;43.39
31337;BME280;22846;42.654;23.314;2022-10-16T09:03:33;95391.84;;;25.49;43.62
31337;BME280;22846;42.654;23.314;2022-10-16T09:22:43;95374.91;;;25.22;33.40
31337;BME280;22846;42.654;23.314;2022-10-16T09:25:18;95371.91;;;25.17;34.84
31337;BME280;22846;42.654;23.314;2022-10-16T09:27:48;95381.72;;;25.14;34.19
31337;BME280;22846;42.654;23.314;2022-10-16T09:30:16;95370.47;;;25.09;36.59
31337;BME280;22846;42.654;23.314;2022-10-16T09:32:44;95373.69;;;25.04;34.15
31337;BME280;22846;42.654;23.314;2022-10-16T09:35:19;95385.50;;;25.01;37.15
31337;BME280;22846;42.654;23.314;2022-10-16T09:37:48;95378.41;;;25.03;36.81
31337;BME280;22846;42.654;23.314;2022-10-16T09:43:25;95377.53;;;25.10;37.34
31337;BME280;22846;42.654;23.314;2022-10-16T09:48:22;95375.03;;;25.15;37.95
31337;BME280;22846;42.654;23.314;2022-10-16T09:50:56;95367.19;;;25.17;38.70
31337;BME280;22846;42.654;23.314;2022-10-16T09:53:22;95365.56;;;25.20;38.67
31337;BME280;22846;42.654;23.314;2022-10-16T09:55:52;95361.63;;;25.21;36.94
31337;BME280;22846;42.654;23.314;2022-10-16T09:58:18;95357.50;;;25.13;36.30
31337;BME280;22846;42.654;23.314;2022-10-16T10:00:51;95365.22;;;25.18;37.42
31337;BME280;22846;42.654;23.314;2022-10-16T10:03:38;95360.53;;;25.18;37.65
31337;BME280;22846;42.654;23.314;2022-10-16T10:06:35;95356.16;;;25.21;38.50
31337;BME280;22846;42.654;23.314;2022-10-16T10:09:29;95354.97;;;25.22;38.74
31337;BME280;22846;42.654;23.314;2022-10-16T10:11:57;95357.53;;;25.29;38.98
31337;BME280;22846;42.654;23.314;2022-10-16T10:14:24;95349.00;;;25.27;39.90
31337;BME280;22846;42.654;23.314;2022-10-16T10:16:53;95347.03;;;25.27;39.82
31337;BME280;22846;42.654;23.314;2022-10-16T10:19:27;95350.13;;;25.29;40.16
31337;BME280;22846;42.654;23.314;2022-10-16T10:21:52;95356.69;;;25.32;40.37
31337;BME280;22846;42.654;23.314;2022-10-16T10:24:19;95349.59;;;25.34;41.12
31337;BME280;22846;42.654;23.314;2022-10-16T10:26:54;95339.44;;;25.35;41.16
31337;BME280;22846;42.654;23.314;2022-10-16T10:33:17;95333.44;;;25.40;41.66
31337;BME280;22846;42.654;23.314;2022-10-16T10:38:36;95338.50;;;25.41;41.84
31337;BME280;22846;42.654;23.314;2022-10-16T10:41:23;95331.41;;;25.44;41.86
31337;BME280;22846;42.654;23.314;2022-10-16T10:57:25;95316.44;;;25.48;42.56
31337;BME280;22846;42.654;23.314;2022-10-16T11:02:41;95314.03;;;25.50;42.67
31337;BME280;22846;42.654;23.314;2022-10-16T11:11:02;95300.59;;;25.56;42.78
31337;BME280;22846;42.654;23.314;2022-10-16T11:16:42;95295.91;;;25.56;42.78
31337;BME280;22846;42.654;23.314;2022-10-16T11:19:13;95296.69;;;25.57;43.25
31337;BME280;22846;42.654;23.314;2022-10-16T11:21:46;95297.47;;;25.57;42.96
31337;BME280;22846;42.654;23.314;2022-10-16T11:27:16;95293.09;;;25.60;43.05
31337;BME280;22846;42.654;23.314;2022-10-16T11:29:49;95294.63;;;25.61;43.04
31337;BME280;22846;42.654;23.314;2022-10-16T11:32:35;95281.69;;;25.61;43.39
31337;BME280;22846;42.654;23.314;2022-10-16T11:35:17;95295.75;;;25.63;43.21
31337;BME280;22846;42.654;23.314;2022-10-16T11:37:46;95287.09;;;25.64;43.01
31337;BME280;22846;42.654;23.314;2022-10-16T11:40:23;95281.69;;;25.61;43.44
31337;BME280;22846;42.654;23.314;2022-10-16T11:42:59;95293.66;;;25.67;43.27
31337;BME280;22846;42.654;23.314;2022-10-16T11:45:39;95287.09;;;25.64;43.50
31337;BME280;22846;42.654;23.314;2022-10-16T11:48:18;95291.72;;;25.67;43.25
31337;BME280;22846;42.654;23.314;2022-10-16T11:51:00;95292.38;;;25.71;43.16
31337;BME280;22846;42.654;23.314;2022-10-16T11:53:48;95291.19;;;25.72;43.03
31337;BME280;22846;42.654;23.314;2022-10-16T11:56:18;95295.47;;;25.73;43.36
31337;BME280;22846;42.654;23.314;2022-10-16T11:59:06;95293.09;;;25.75;43.26
31337;BME280;22846;42.654;23.314;2022-10-16T12:01:43;95299.34;;;25.76;43.43
31337;BME280;22846;42.654;23.314;2022-10-16T12:04:26;95290.72;;;25.77;43.37
31337;BME280;22846;42.654;23.314;2022-10-16T12:07:05;95293.75;;;25.79;43.05
31337;BME280;22846;42.654;23.314;2022-10-16T12:09:36;95288.63;;;25.81;43.17
31337;BME280;22846;42.654;23.314;2022-10-16T12:12:02;95283.50;;;25.83;43.42
31337;BME280;22846;42.654;23.314;2022-10-16T12:14:39;95279.75;;;25.77;43.19
31337;BME280;22846;42.654;23.314;2022-10-16T12:17:26;95286.59;;;25.85;43.55
31337;BME280;22846;42.654;23.314;2022-10-16T12:20:01;95293.59;;;25.86;43.14
31337;BME280;22846;42.654;23.314;2022-10-16T12:22:30;95299.84;;;25.87;43.20
31337;BME280;22846;42.654;23.314;2022-10-16T12:24:57;95293.50;;;25.90;43.02
31337;BME280;22846;42.654;23.314;2022-10-16T12:27:30;95289.56;;;25.91;43.20
31337;BME280;22846;42.654;23.314;2022-10-16T12:30:00;95279.13;;;25.86;43.17
31337;BME280;22846;42.654;23.314;2022-10-16T12:32:35;95274.44;;;25.86;43.44
31337;BME280;22846;42.654;23.314;2022-10-16T12:35:03;95289.81;;;25.96;43.28
31337;BME280;22846;42.654;23.314;2022-10-16T12:37:31;95294.06;;;25.97;43.44
31337;BME280;22846;42.654;23.314;2022-10-16T12:39:59;95290.94;;;25.99;43.24
31337;BME280;22846;42.654;23.314;2022-10-16T12:44:54;95288.84;;;26.03;43.28
31337;BME280;22846;42.654;23.314;2022-10-16T12:49:58;95286.56;;;26.01;43.21
31337;BME280;22846;42.654;23.314;2022-10-16T12:52:26;95286.78;;;26.07;43.49
31337;BME280;22846;42.654;23.314;2022-10-16T12:54:56;95292.19;;;26.10;43.25
31337;BME280;22846;42.654;23.314;2022-10-16T13:00:35;95294.06;;;26.13;43.38
31337;BME280;22846;42.654;23.314;2022-10-16T13:11:47;95304.38;;;26.22;43.34
31337;BME280;22846;42.654;23.314;2022-10-16T13:14:30;95311.41;;;26.23;42.95
31337;BME280;22846;42.654;23.314;2022-10-16T13:20:06;95307.38;;;26.27;43.02
31337;BME280;22846;42.654;23.314;2022-10-16T13:28:01;95307.06;;;26.38;43.28
31337;BME280;22846;42.654;23.314;2022-10-16T13:30:28;95299.97;;;26.40;43.25
31337;BME280;22846;42.654;23.314;2022-10-16T13:33:03;95290.63;;;26.38;43.39
31337;BME280;22846;42.654;23.314;2022-10-16T13:35:32;95289.44;;;26.39;43.05
31337;BME280;22846;42.654;23.314;2022-10-16T13:38:13;95301.34;;;26.48;43.04
31337;BME280;22846;42.654;23.314;2022-10-16T13:40:50;95305.94;;;26.51;43.06
31337;BME280;22846;42.654;23.314;2022-10-16T13:43:23;95305.09;;;26.54;42.81
31337;BME280;22846;42.654;23.314;2022-10-16T13:46:36;95299.16;;;26.55;42.86
31337;BME280;22846;42.654;23.314;2022-10-16T13:48:42;95302.75;;;26.52;42.78
31337;BME280;22846;42.654;23.314;2022-10-16T13:51:18;95304.53;;;26.59;39.99
31337;BME280;22846;42.654;23.314;2022-10-16T13:53:44;95301.91;;;26.55;41.40
31337;BME280;22846;42.654;23.314;2022-10-16T13:56:19;95308.72;;;26.63;42.13
31337;BME280;22846;42.654;23.314;2022-10-16T13:58:45;95301.69;;;26.62;42.49
31337;BME280;22846;42.654;23.314;2022-10-16T14:01:20;95301.59;;;26.66;42.06
31337;BME280;22846;42.654;23.314;2022-10-16T14:03:49;95317.75;;;26.76;42.51
31337;BME280;22846;42.654;23.314;2022-10-16T14:06:17;95320.06;;;26.78;39.77
31337;BME280;22846;42.654;23.314;2022-10-16T14:08:50;95310.50;;;26.82;41.13
31337;BME280;22846;42.654;23.314;2022-10-16T14:11:22;95298.22;;;26.74;40.84
31337;BME280;22846;42.654;23.314;2022-10-16T14:13:52;95318.66;;;26.98;40.47
31337;BME280;22846;42.654;23.314;2022-10-16T14:16:23;95312.97;;;27.05;40.46
31337;BME280;22846;42.654;23.314;2022-10-16T14:18:57;95322.22;;;27.24;40.52
31337;BME280;22846;42.654;23.314;2022-10-16T14:21:23;95308.38;;;27.27;40.25
31337;BME280;22846;42.654;23.314;2022-10-16T14:23:49;95321.31;;;27.39;40.28
31337;BME280;22846;42.654;23.314;2022-10-16T14:26:18;95317.59;;;27.45;40.22
31337;BME280;22846;42.654;23.314;2022-10-16T14:28:45;95327.03;;;27.57;39.91
31337;BME280;22846;42.654;23.314;2022-10-16T14:31:32;95316.50;;;27.55;40.05
31337;BME280;22846;42.654;23.314;2022-10-16T14:33:58;95335.50;;;27.62;39.98
31337;BME280;22846;42.654;23.314;2022-10-16T14:36:26;95319.59;;;27.45;40.18
31337;BME280;22846;42.654;23.314;2022-10-16T14:39:14;95329.78;;;27.44;40.32
31337;BME280;22846;42.654;23.314;2022-10-16T14:41:46;95336.72;;;27.36;40.60